createdAt,value
2023-01-20T00:00:10.279Z,82.05
2023-01-20T00:01:10.311Z,81.95
2023-01-20T00:02:10.050Z,82.05
2023-01-20T00:03:10.333Z,82.05
2023-01-20T00:04:10.345Z,81.95
2023-01-20T00:05:10.406Z,82.52
2023-01-20T00:06:10.374Z,82.24
2023-01-20T00:07:10.366Z,82.05
2023-01-20T00:08:10.126Z,82.24
2023-01-20T00:09:10.410Z,81.86
2023-01-20T00:10:10.417Z,82.24
2023-01-20T00:11:10.432Z,81.95
2023-01-20T00:12:10.201Z,81.95
2023-01-20T00:13:10.448Z,81.95
2023-01-20T00:14:10.531Z,81.95
2023-01-20T00:15:10.480Z,81.95
2023-01-20T00:16:10.767Z,82.52
2023-01-20T00:17:10.535Z,81.95
2023-01-20T00:18:10.516Z,82.14
2023-01-20T00:19:10.544Z,82.52
2023-01-20T00:20:10.280Z,82.14
2023-01-20T00:21:10.593Z,81.95
2023-01-20T00:22:10.332Z,82.05
2023-01-20T00:23:10.582Z,82.05
2023-01-20T00:24:10.596Z,82.52
2023-01-20T00:25:10.608Z,81.86
2023-01-20T00:26:10.624Z,82.33
2023-01-20T00:27:10.640Z,82.33
2023-01-20T00:28:10.640Z,81.95
2023-01-20T00:29:10.671Z,81.95
2023-01-20T00:30:10.691Z,81.95
2023-01-20T00:31:10.795Z,81.95
2023-01-20T00:32:10.725Z,81.95
2023-01-20T00:33:10.732Z,82.14
2023-01-20T00:34:10.730Z,82.14
2023-01-20T00:35:10.534Z,82.14
2023-01-20T00:36:10.753Z,82.14
2023-01-20T00:37:10.793Z,82.14
2023-01-20T00:38:10.972Z,82.43
2023-01-20T00:39:10.806Z,82.14
2023-01-20T00:40:10.797Z,82.14
2023-01-20T00:41:10.829Z,82.14
2023-01-20T00:42:10.571Z,82.43
2023-01-20T00:43:10.879Z,82.14
2023-01-20T00:44:10.855Z,82.33
2023-01-20T00:45:10.958Z,82.14
2023-01-20T00:46:11.105Z,82.14
2023-01-20T00:47:10.903Z,82.43
2023-01-20T00:48:10.909Z,82.43
2023-01-20T00:49:10.952Z,82.33
2023-01-20T00:50:10.943Z,82.52
2023-01-20T00:51:10.976Z,82.43
2023-01-20T00:52:10.966Z,82.43
2023-01-20T00:53:11.009Z,82.43
2023-01-20T00:54:10.984Z,82.24
2023-01-20T00:55:11.235Z,82.52
2023-01-20T00:56:10.759Z,82.33
2023-01-20T00:57:10.773Z,82.14
2023-01-20T00:58:11.040Z,82.14
2023-01-20T00:59:11.059Z,82.52
2023-01-20T01:00:11.077Z,82.43
2023-01-20T01:01:11.383Z,82.43
2023-01-20T01:02:11.325Z,82.14
2023-01-20T01:03:11.102Z,82.33
2023-01-20T01:04:11.120Z,82.14
2023-01-20T01:05:11.376Z,82.43
2023-01-20T01:06:11.142Z,82.14
2023-01-20T01:07:11.161Z,82.14
2023-01-20T01:08:11.170Z,82.14
2023-01-20T01:09:11.220Z,82.14
2023-01-20T01:10:11.205Z,82.43
2023-01-20T01:11:11.214Z,82.43
2023-01-20T01:12:11.231Z,82.43
2023-01-20T01:13:11.245Z,82.14
2023-01-20T01:14:11.011Z,82.24
2023-01-20T01:15:11.537Z,82.33
2023-01-20T01:16:11.383Z,82.43
2023-01-20T01:17:11.283Z,82.14
2023-01-20T01:18:11.301Z,82.43
2023-01-20T01:19:11.321Z,82.9
2023-01-20T01:20:11.321Z,83
2023-01-20T01:21:11.366Z,82.24
2023-01-20T01:22:11.358Z,82.24
2023-01-20T01:23:11.368Z,82.33
2023-01-20T01:24:11.383Z,82.05
2023-01-20T01:25:11.788Z,83
2023-01-20T01:26:11.423Z,83.09
2023-01-20T01:27:11.466Z,82.24
2023-01-20T01:28:11.423Z,82.81
2023-01-20T01:29:11.184Z,82.14
2023-01-20T01:30:11.453Z,82.33
2023-01-20T01:31:11.679Z,82.33
2023-01-20T01:32:11.485Z,82.43
2023-01-20T01:33:11.501Z,82.9
2023-01-20T01:34:11.541Z,82.14
2023-01-20T01:35:12.016Z,82.81
2023-01-20T01:36:11.529Z,82.81
2023-01-20T01:37:11.578Z,82.81
2023-01-20T01:38:11.652Z,82.62
2023-01-20T01:39:11.317Z,82.9
2023-01-20T01:40:11.616Z,82.81
2023-01-20T01:41:11.625Z,82.62
2023-01-20T01:42:11.614Z,82.81
2023-01-20T01:43:11.634Z,83
2023-01-20T01:44:11.656Z,82.81
2023-01-20T01:45:11.946Z,82.62
2023-01-20T01:46:11.662Z,83
2023-01-20T01:47:11.680Z,83
2023-01-20T01:48:11.694Z,82.9
2023-01-20T01:49:11.710Z,82.52
2023-01-20T01:50:11.737Z,82.9
2023-01-20T01:51:11.478Z,82.9
2023-01-20T01:52:11.754Z,82.81
2023-01-20T01:53:11.779Z,82.81
2023-01-20T01:54:11.765Z,82.62
2023-01-20T01:55:11.801Z,82.81
2023-01-20T01:56:11.799Z,82.33
2023-01-20T01:57:11.831Z,82.9
2023-01-20T01:58:11.820Z,83
2023-01-20T01:59:11.605Z,82.62
2023-01-20T02:00:11.845Z,82.81
2023-01-20T02:01:12.251Z,82.9
2023-01-20T02:02:11.761Z,83
2023-01-20T02:03:11.917Z,82.62
2023-01-20T02:04:11.915Z,83
2023-01-20T02:05:11.922Z,82.81
2023-01-20T02:06:11.939Z,82.62
2023-01-20T02:07:12.009Z,82.62
2023-01-20T02:08:11.979Z,82.81
2023-01-20T02:09:12.038Z,82.9
2023-01-20T02:10:11.987Z,82.81
2023-01-20T02:11:12.011Z,82.62
2023-01-20T02:12:11.752Z,82.62
2023-01-20T02:13:12.043Z,83
2023-01-20T02:14:11.772Z,82.81
2023-01-20T02:15:12.338Z,82.9
2023-01-20T02:16:12.153Z,82.9
2023-01-20T02:17:12.067Z,82.81
2023-01-20T02:18:12.087Z,82.81
2023-01-20T02:19:12.094Z,82.81
2023-01-20T02:20:11.860Z,83
2023-01-20T02:21:12.199Z,82.81
2023-01-20T02:22:12.145Z,82.14
2023-01-20T02:23:11.897Z,82.33
2023-01-20T02:24:11.904Z,82.43
2023-01-20T02:25:12.454Z,82.14
2023-01-20T02:26:12.205Z,82.81
2023-01-20T02:27:12.219Z,82.9
2023-01-20T02:28:12.218Z,82.81
2023-01-20T02:29:12.253Z,82.9
2023-01-20T02:30:12.251Z,82.81
2023-01-20T02:31:12.330Z,83
2023-01-20T02:32:12.302Z,82.71
2023-01-20T02:33:12.281Z,83
2023-01-20T02:34:12.288Z,82.81
2023-01-20T02:35:12.555Z,82.9
2023-01-20T02:36:12.064Z,82.9
2023-01-20T02:37:12.326Z,82.9
2023-01-20T02:38:12.410Z,82.81
2023-01-20T02:39:12.352Z,82.43
2023-01-20T02:40:12.378Z,82.62
2023-01-20T02:41:12.421Z,82.62
2023-01-20T02:42:12.138Z,82.62
2023-01-20T02:43:12.168Z,82.9
2023-01-20T02:44:12.448Z,82.9
2023-01-20T02:45:12.949Z,82.52
2023-01-20T02:46:12.449Z,82.81
2023-01-20T02:47:12.466Z,82.43
2023-01-20T02:48:12.229Z,82.81
2023-01-20T02:49:12.507Z,82.71
2023-01-20T02:50:12.520Z,82.43
2023-01-20T02:51:12.550Z,82.9
2023-01-20T02:52:12.274Z,83
2023-01-20T02:53:12.548Z,83
2023-01-20T02:54:12.580Z,83
2023-01-20T02:55:12.904Z,82.81
2023-01-20T02:56:12.596Z,82.81
2023-01-20T02:57:12.673Z,82.81
2023-01-20T02:58:12.638Z,82.43
2023-01-20T02:59:12.618Z,82.62
2023-01-20T03:00:12.637Z,82.81
2023-01-20T03:01:13.051Z,82.81
2023-01-20T03:02:12.929Z,82.81
2023-01-20T03:03:12.686Z,82.43
2023-01-20T03:04:12.549Z,82.14
2023-01-20T03:05:13.355Z,82.52
2023-01-20T03:06:12.453Z,82.14
2023-01-20T03:07:12.469Z,82.62
2023-01-20T03:08:12.935Z,82.71
2023-01-20T03:09:12.961Z,82.14
2023-01-20T03:10:13.049Z,82.62
2023-01-20T03:11:12.933Z,82.62
2023-01-20T03:12:12.849Z,82.33
2023-01-20T03:13:12.930Z,82.52
2023-01-20T03:14:12.978Z,82.62
2023-01-20T03:15:13.208Z,82.62
2023-01-20T03:16:12.621Z,82.81
2023-01-20T03:17:12.959Z,82.71
2023-01-20T03:18:12.929Z,82.81
2023-01-20T03:19:12.645Z,82.24
2023-01-20T03:20:12.960Z,82.81
2023-01-20T03:21:12.948Z,82.71
2023-01-20T03:22:12.950Z,83
2023-01-20T03:23:12.936Z,83.09
2023-01-20T03:24:12.961Z,82.33
2023-01-20T03:25:13.239Z,82.43
2023-01-20T03:26:12.989Z,82.33
2023-01-20T03:27:13.031Z,82.43
2023-01-20T03:28:12.949Z,82.43
2023-01-20T03:29:12.794Z,82.43
2023-01-20T03:30:13.024Z,82.43
2023-01-20T03:31:13.385Z,82.33
2023-01-20T03:32:12.797Z,82.14
2023-01-20T03:33:13.123Z,82.14
2023-01-20T03:34:13.083Z,82.14
2023-01-20T03:35:13.320Z,82.14
2023-01-20T03:36:13.100Z,82.14
2023-01-20T03:37:13.147Z,82.24
2023-01-20T03:38:13.431Z,82.05
2023-01-20T03:39:13.149Z,81.95
2023-01-20T03:40:13.170Z,81.95
2023-01-20T03:41:13.170Z,81.95
2023-01-20T03:42:13.185Z,82.52
2023-01-20T03:43:13.199Z,82.43
2023-01-20T03:44:13.207Z,82.33
2023-01-20T03:45:13.530Z,82.43
2023-01-20T03:46:13.326Z,82.43
2023-01-20T03:47:13.299Z,82.43
2023-01-20T03:48:13.267Z,82.05
2023-01-20T03:49:13.296Z,82.24
2023-01-20T03:50:13.297Z,82.05
2023-01-20T03:51:13.317Z,82.05
2023-01-20T03:52:13.326Z,82.24
2023-01-20T03:53:13.327Z,82.05
2023-01-20T03:54:13.353Z,82.05
2023-01-20T03:55:13.574Z,81.95
2023-01-20T03:56:13.362Z,81.95
2023-01-20T03:57:13.379Z,81.95
2023-01-20T03:58:13.407Z,81.95
2023-01-20T03:59:13.143Z,81.95
2023-01-20T04:00:13.432Z,81.86
2023-01-20T04:01:21.129Z,81.86
2023-01-20T04:02:13.704Z,81.86
2023-01-20T04:03:13.604Z,82.05
2023-01-20T04:04:13.474Z,82.05
2023-01-20T04:05:13.833Z,81.95
2023-01-20T04:06:13.503Z,82.05
2023-01-20T04:07:13.520Z,81.95
2023-01-20T04:08:13.516Z,81.95
2023-01-20T04:09:13.561Z,81.95
2023-01-20T04:10:13.543Z,81.95
2023-01-20T04:11:13.552Z,81.95
2023-01-20T04:12:13.574Z,81.95
2023-01-20T04:13:13.584Z,81.86
2023-01-20T04:14:13.610Z,81.95
2023-01-20T04:15:13.827Z,81.95
2023-01-20T04:16:13.784Z,82.05
2023-01-20T04:17:13.404Z,81.95
2023-01-20T04:18:13.646Z,82.05
2023-01-20T04:19:13.658Z,82.05
2023-01-20T04:20:13.420Z,81.86
2023-01-20T04:21:13.711Z,82.05
2023-01-20T04:22:13.702Z,82.05
2023-01-20T04:23:13.723Z,82.05
2023-01-20T04:24:13.729Z,82.05
2023-01-20T04:25:13.992Z,81.86
2023-01-20T04:26:13.762Z,81.95
2023-01-20T04:27:13.766Z,81.95
2023-01-20T04:28:13.792Z,81.76
2023-01-20T04:29:15.774Z,81.95
2023-01-20T04:30:13.805Z,81.86
2023-01-20T04:31:31.766Z,81.95
2023-01-20T04:32:13.846Z,81.95
2023-01-20T04:33:13.865Z,82.05
2023-01-20T04:34:13.853Z,82.05
2023-01-20T04:35:14.191Z,81.86
2023-01-20T04:36:13.888Z,82.05
2023-01-20T04:37:13.935Z,82.05
2023-01-20T04:38:14.312Z,82.05
2023-01-20T04:39:13.928Z,81.95
2023-01-20T04:40:13.951Z,82.05
2023-01-20T04:41:13.987Z,82.24
2023-01-20T04:42:13.955Z,81.86
2023-01-20T04:43:13.975Z,81.86
2023-01-20T04:44:14.012Z,81.95
2023-01-20T04:45:14.252Z,81.95
2023-01-20T04:46:14.076Z,82.24
2023-01-20T04:47:14.025Z,81.95
2023-01-20T04:48:14.038Z,81.95
2023-01-20T04:49:14.074Z,82.05
2023-01-20T04:50:14.075Z,82.05
2023-01-20T04:51:14.087Z,82.05
2023-01-20T04:52:14.102Z,82.05
2023-01-20T04:53:14.138Z,81.95
2023-01-20T04:54:14.128Z,82.05
2023-01-20T04:55:14.457Z,82.05
2023-01-20T04:56:14.145Z,81.95
2023-01-20T04:57:14.157Z,81.95
2023-01-20T04:58:14.173Z,82.05
2023-01-20T04:59:13.922Z,82.05
2023-01-20T05:00:14.197Z,82.05
2023-01-20T05:01:14.454Z,82.05
2023-01-20T05:02:14.353Z,82.05
2023-01-20T05:03:14.261Z,81.95
2023-01-20T05:04:14.247Z,82.05
2023-01-20T05:05:14.731Z,81.95
2023-01-20T05:06:14.273Z,82.05
2023-01-20T05:07:14.284Z,81.86
2023-01-20T05:08:14.309Z,82.05
2023-01-20T05:09:14.342Z,82.05
2023-01-20T05:10:15.495Z,82.05
2023-01-20T05:11:14.349Z,81.95
2023-01-20T05:12:14.354Z,81.95
2023-01-20T05:13:14.109Z,81.95
2023-01-20T05:14:14.380Z,81.95
2023-01-20T05:15:14.708Z,82.05
2023-01-20T05:16:14.538Z,82.05
2023-01-20T05:17:14.431Z,81.95
2023-01-20T05:18:14.438Z,82.05
2023-01-20T05:19:14.231Z,82.05
2023-01-20T05:20:14.481Z,82.05
2023-01-20T05:21:14.519Z,81.95
2023-01-20T05:22:14.502Z,82.05
2023-01-20T05:23:14.522Z,82.05
2023-01-20T05:24:14.257Z,82.05
2023-01-20T05:25:15.415Z,82.05
2023-01-20T05:26:14.549Z,82.05
2023-01-20T05:27:14.328Z,82.05
2023-01-20T05:28:14.575Z,82.24
2023-01-20T05:29:14.589Z,82.24
2023-01-20T05:30:14.599Z,81.86
2023-01-20T05:31:14.914Z,82.05
2023-01-20T05:32:14.620Z,82.05
2023-01-20T05:33:14.663Z,82.05
2023-01-20T05:34:14.773Z,82.05
2023-01-20T05:35:15.251Z,82.43
2023-01-20T05:36:14.705Z,82.05
2023-01-20T05:37:14.813Z,82.43
2023-01-20T05:38:14.997Z,82.24
2023-01-20T05:39:14.707Z,82.43
2023-01-20T05:40:14.732Z,82.24
2023-01-20T05:41:14.756Z,82.52
2023-01-20T05:42:14.759Z,82.43
2023-01-20T05:43:15.607Z,82.24
2023-01-20T05:44:14.776Z,82.52
2023-01-20T05:45:15.360Z,82.43
2023-01-20T05:46:14.872Z,82.43
2023-01-20T05:47:14.826Z,82.05
2023-01-20T05:48:14.823Z,82.33
2023-01-20T05:49:14.847Z,82.33
2023-01-20T05:50:14.883Z,82.52
2023-01-20T05:51:14.641Z,82.05
2023-01-20T05:52:14.876Z,82.52
2023-01-20T05:53:14.911Z,82.05
2023-01-20T05:54:14.931Z,81.95
2023-01-20T05:55:15.557Z,82.14
2023-01-20T05:56:14.931Z,81.95
2023-01-20T05:57:14.970Z,82.43
2023-01-20T05:58:14.697Z,82.14
2023-01-20T05:59:14.967Z,82.14
2023-01-20T06:00:15.121Z,82.05
2023-01-20T06:01:15.140Z,82.14
2023-01-20T06:02:15.011Z,82.24
2023-01-20T06:03:15.015Z,82.24
2023-01-20T06:04:15.105Z,82.14
2023-01-20T06:05:15.952Z,82.24
2023-01-20T06:06:15.080Z,82.05
2023-01-20T06:07:15.078Z,82.05
2023-01-20T06:08:15.095Z,81.95
2023-01-20T06:09:15.123Z,82.05
2023-01-20T06:10:14.883Z,81.95
2023-01-20T06:11:15.160Z,81.95
2023-01-20T06:12:15.151Z,81.95
2023-01-20T06:13:15.384Z,82.05
2023-01-20T06:14:15.182Z,81.95
2023-01-20T06:15:16.240Z,82.43
2023-01-20T06:16:15.443Z,82.43
2023-01-20T06:17:15.153Z,82.52
2023-01-20T06:18:15.207Z,82.05
2023-01-20T06:19:15.440Z,82.05
2023-01-20T06:20:15.354Z,81.95
2023-01-20T06:21:15.356Z,81.95
2023-01-20T06:22:15.327Z,82.05
2023-01-20T06:23:15.484Z,82.05
2023-01-20T06:24:15.300Z,82.05
2023-01-20T06:25:16.134Z,82.05
2023-01-20T06:26:15.381Z,82.05
2023-01-20T06:27:16.283Z,81.86
2023-01-20T06:28:15.354Z,82.24
2023-01-20T06:29:15.377Z,82.24
2023-01-20T06:30:15.388Z,82.05
2023-01-20T06:31:15.436Z,82.24
2023-01-20T06:32:15.402Z,82.05
2023-01-20T06:33:15.407Z,82.14
2023-01-20T06:34:15.423Z,81.76
2023-01-20T06:35:16.182Z,81.86
2023-01-20T06:36:15.200Z,82.14
2023-01-20T06:37:15.456Z,81.67
2023-01-20T06:38:15.272Z,82.14
2023-01-20T06:39:15.498Z,81.86
2023-01-20T06:40:15.497Z,82.05
2023-01-20T06:41:15.578Z,81.95
2023-01-20T06:42:15.516Z,81.86
2023-01-20T06:43:15.542Z,81.95
2023-01-20T06:44:15.556Z,81.95
2023-01-20T06:45:16.381Z,81.95
2023-01-20T06:46:15.689Z,81.76
2023-01-20T06:47:15.605Z,81.95
2023-01-20T06:48:15.601Z,81.95
2023-01-20T06:49:15.360Z,81.95
2023-01-20T06:50:15.619Z,81.95
2023-01-20T06:51:15.383Z,81.95
2023-01-20T06:52:15.681Z,81.86
2023-01-20T06:53:15.671Z,81.86
2023-01-20T06:54:15.670Z,81.86
2023-01-20T06:55:16.376Z,81.95
2023-01-20T06:56:15.728Z,81.95
2023-01-20T06:57:15.744Z,81.76
2023-01-20T06:58:15.472Z,81.86
2023-01-20T06:59:15.497Z,81.76
2023-01-20T07:00:15.497Z,81.76
2023-01-20T07:01:16.221Z,81.95
2023-01-20T07:02:16.172Z,81.95
2023-01-20T07:03:16.711Z,81.95
2023-01-20T07:04:15.819Z,81.95
2023-01-20T07:05:16.685Z,81.95
2023-01-20T07:06:15.848Z,81.86
2023-01-20T07:07:15.844Z,81.86
2023-01-20T07:08:15.860Z,82.05
2023-01-20T07:09:15.889Z,81.86
2023-01-20T07:10:15.930Z,81.95
2023-01-20T07:11:15.674Z,81.95
2023-01-20T07:12:15.915Z,81.95
2023-01-20T07:13:15.681Z,81.95
2023-01-20T07:14:15.949Z,81.95
2023-01-20T07:15:16.577Z,81.86
2023-01-20T07:16:18.058Z,82.05
2023-01-20T07:17:16.013Z,81.86
2023-01-20T07:18:15.991Z,81.95
2023-01-20T07:19:15.749Z,81.86
2023-01-20T07:20:16.023Z,81.95
2023-01-20T07:21:16.070Z,82.05
2023-01-20T07:22:15.778Z,81.76
2023-01-20T07:23:16.058Z,81.95
2023-01-20T07:24:16.066Z,81.95
2023-01-20T07:25:16.906Z,81.95
2023-01-20T07:26:16.119Z,81.86
2023-01-20T07:27:15.840Z,81.95
2023-01-20T07:28:16.113Z,81.76
2023-01-20T07:29:17.823Z,82.05
2023-01-20T07:30:16.258Z,82.05
2023-01-20T07:31:15.975Z,81.67
2023-01-20T07:32:16.169Z,82.05
2023-01-20T07:33:16.301Z,81.76
2023-01-20T07:34:15.938Z,81.76
2023-01-20T07:35:17.044Z,82.05
2023-01-20T07:36:16.214Z,81.76
2023-01-20T07:37:16.227Z,81.76
2023-01-20T07:38:16.277Z,82.05
2023-01-20T07:39:16.255Z,81.67
2023-01-20T07:40:16.025Z,82.05
2023-01-20T07:41:16.554Z,81.67
2023-01-20T07:42:16.295Z,81.76
2023-01-20T07:43:16.063Z,82.14
2023-01-20T07:44:16.338Z,81.95
2023-01-20T07:45:16.987Z,82.05
2023-01-20T07:46:16.348Z,82.05
2023-01-20T07:47:16.391Z,81.95
2023-01-20T07:48:16.396Z,82.14
2023-01-20T07:49:16.406Z,81.95
2023-01-20T07:50:16.398Z,82.14
2023-01-20T07:51:16.408Z,82.05
2023-01-20T07:52:16.162Z,82.05
2023-01-20T07:53:16.436Z,82.05
2023-01-20T07:54:16.466Z,81.76
2023-01-20T07:55:17.268Z,82.14
2023-01-20T07:56:16.495Z,82.14
2023-01-20T07:57:16.485Z,81.86
2023-01-20T07:58:16.539Z,81.95
2023-01-20T07:59:16.521Z,81.67
2023-01-20T08:00:16.535Z,81.76
2023-01-20T08:01:16.800Z,81.86
2023-01-20T08:02:16.295Z,81.76
2023-01-20T08:03:16.589Z,81.76
2023-01-20T08:04:16.581Z,81.86
2023-01-20T08:05:17.332Z,81.76
2023-01-20T08:06:16.622Z,81.67
2023-01-20T08:07:16.618Z,82.14
2023-01-20T08:08:16.627Z,82.14
2023-01-20T08:09:16.653Z,81.86
2023-01-20T08:10:16.659Z,81.95
2023-01-20T08:11:16.416Z,82.05
2023-01-20T08:12:16.688Z,82.14
2023-01-20T08:13:16.725Z,81.86
2023-01-20T08:14:16.713Z,81.67
2023-01-20T08:15:17.445Z,81.67
2023-01-20T08:16:16.830Z,81.95
2023-01-20T08:17:16.775Z,81.95
2023-01-20T08:18:16.763Z,82.05
2023-01-20T08:19:16.523Z,81.76
2023-01-20T08:20:18.851Z,82.14
2023-01-20T08:21:16.818Z,81.67
2023-01-20T08:22:16.817Z,81.95
2023-01-20T08:23:16.827Z,81.67
2023-01-20T08:24:16.838Z,82.05
2023-01-20T08:25:17.521Z,81.67
2023-01-20T08:26:16.893Z,81.48
2023-01-20T08:27:16.887Z,82.05
2023-01-20T08:28:16.626Z,81.67
2023-01-20T08:29:16.917Z,82.14
2023-01-20T08:30:16.921Z,81.95
2023-01-20T08:31:16.959Z,81.86
2023-01-20T08:32:16.953Z,81.95
2023-01-20T08:33:16.996Z,82.14
2023-01-20T08:34:16.994Z,81.95
2023-01-20T08:35:17.491Z,82.05
2023-01-20T08:36:16.773Z,81.76
2023-01-20T08:37:17.039Z,82.14
2023-01-20T08:38:17.005Z,82.14
2023-01-20T08:39:17.051Z,81.95
2023-01-20T08:40:17.249Z,81.67
2023-01-20T08:41:17.108Z,81.76
2023-01-20T08:42:17.070Z,82.05
2023-01-20T08:43:17.096Z,81.86
2023-01-20T08:44:17.106Z,81.86
2023-01-20T08:45:17.704Z,81.86
2023-01-20T08:46:17.383Z,81.86
2023-01-20T08:47:16.907Z,81.76
2023-01-20T08:48:17.164Z,81.95
2023-01-20T08:49:17.190Z,82.05
2023-01-20T08:50:16.939Z,81.67
2023-01-20T08:51:17.429Z,81.95
2023-01-20T08:52:17.202Z,81.95
2023-01-20T08:53:17.245Z,81.95
2023-01-20T08:54:17.226Z,81.95
2023-01-20T08:55:17.509Z,82.05
2023-01-20T08:56:17.268Z,81.67
2023-01-20T08:57:17.278Z,82.14
2023-01-20T08:58:17.017Z,81.86
2023-01-20T08:59:17.289Z,81.86
2023-01-20T09:00:17.332Z,81.76
2023-01-20T09:01:17.413Z,81.67
2023-01-20T09:02:17.426Z,81.76
2023-01-20T09:03:17.341Z,81.86
2023-01-20T09:04:17.100Z,81.95
2023-01-20T09:05:17.871Z,82.05
2023-01-20T09:06:17.418Z,81.76
2023-01-20T09:07:17.396Z,81.86
2023-01-20T09:08:17.450Z,81.86
2023-01-20T09:09:17.490Z,82.05
2023-01-20T09:10:17.178Z,81.76
2023-01-20T09:11:17.584Z,81.76
2023-01-20T09:12:17.210Z,81.95
2023-01-20T09:13:17.475Z,81.76
2023-01-20T09:14:17.222Z,82.05
2023-01-20T09:15:17.867Z,81.76
2023-01-20T09:16:17.621Z,81.76
2023-01-20T09:17:17.550Z,81.86
2023-01-20T09:18:17.551Z,81.95
2023-01-20T09:19:17.576Z,81.95
2023-01-20T09:20:17.563Z,81.95
2023-01-20T09:21:17.737Z,82.14
2023-01-20T09:22:19.089Z,81.95
2023-01-20T09:23:17.603Z,81.67
2023-01-20T09:24:17.614Z,81.86
2023-01-20T09:25:17.971Z,81.95
2023-01-20T09:26:36.308Z,81.95
2023-01-20T09:27:17.403Z,81.95
2023-01-20T09:28:17.679Z,81.95
2023-01-20T09:29:17.431Z,81.95
2023-01-20T09:30:17.702Z,81.86
2023-01-20T09:31:17.881Z,81.95
2023-01-20T09:32:17.458Z,81.86
2023-01-20T09:33:17.740Z,81.86
2023-01-20T09:34:17.919Z,81.95
2023-01-20T09:35:18.579Z,81.86
2023-01-20T09:36:17.774Z,81.76
2023-01-20T09:37:17.945Z,81.76
2023-01-20T09:38:17.794Z,81.95
2023-01-20T09:39:17.809Z,81.86
2023-01-20T09:40:17.937Z,81.76
2023-01-20T09:41:17.901Z,81.95
2023-01-20T09:42:17.842Z,81.95
2023-01-20T09:43:17.873Z,81.95
2023-01-20T09:44:17.620Z,81.86
2023-01-20T09:45:18.266Z,81.76
2023-01-20T09:46:17.933Z,81.95
2023-01-20T09:47:17.920Z,81.67
2023-01-20T09:48:17.969Z,82.14
2023-01-20T09:49:17.947Z,81.76
2023-01-20T09:50:18.254Z,82.14
2023-01-20T09:51:17.961Z,82.05
2023-01-20T09:52:18.000Z,81.76
2023-01-20T09:53:18.230Z,81.86
2023-01-20T09:54:18.002Z,81.95
2023-01-20T09:55:17.748Z,81.86
2023-01-20T09:56:18.038Z,81.86
2023-01-20T09:57:18.066Z,82.05
2023-01-20T09:58:18.048Z,81.67
2023-01-20T09:59:18.067Z,81.95
2023-01-20T10:00:18.525Z,82.05
2023-01-20T10:01:18.264Z,81.86
2023-01-20T10:02:17.858Z,82.05
2023-01-20T10:03:17.869Z,81.86
2023-01-20T10:04:18.132Z,82.05
2023-01-20T10:05:18.288Z,82.14
2023-01-20T10:06:18.239Z,82.05
2023-01-20T10:07:17.922Z,82.05
2023-01-20T10:08:17.922Z,82.05
2023-01-20T10:09:18.224Z,82.05
2023-01-20T10:10:18.579Z,82.05
2023-01-20T10:11:18.089Z,82.05
2023-01-20T10:12:18.252Z,82.05
2023-01-20T10:13:18.307Z,82.33
2023-01-20T10:14:18.268Z,82.05
2023-01-20T10:15:18.278Z,82.43
2023-01-20T10:16:18.509Z,82.14
2023-01-20T10:17:18.301Z,82.33
2023-01-20T10:18:18.083Z,82.33
2023-01-20T10:19:18.535Z,81.95
2023-01-20T10:20:18.864Z,81.95
2023-01-20T10:21:18.352Z,82.43
2023-01-20T10:22:18.378Z,81.95
2023-01-20T10:23:18.123Z,82.05
2023-01-20T10:24:18.390Z,81.95
2023-01-20T10:25:18.448Z,82.14
2023-01-20T10:26:18.620Z,82.33
2023-01-20T10:27:18.452Z,82.05
2023-01-20T10:28:18.188Z,81.95
2023-01-20T10:29:18.479Z,82.24
2023-01-20T10:30:19.011Z,82.52
2023-01-20T10:31:18.847Z,81.95
2023-01-20T10:32:18.494Z,82.05
2023-01-20T10:33:18.510Z,82.05
2023-01-20T10:34:18.521Z,82.05
2023-01-20T10:35:19.175Z,81.95
2023-01-20T10:36:18.604Z,82.33
2023-01-20T10:37:18.567Z,81.95
2023-01-20T10:38:18.582Z,82.52
2023-01-20T10:39:18.582Z,82.52
2023-01-20T10:40:18.804Z,82.33
2023-01-20T10:41:21.167Z,82.05
2023-01-20T10:42:18.374Z,82.24
2023-01-20T10:43:18.638Z,82.05
2023-01-20T10:44:18.664Z,82.14
2023-01-20T10:45:19.125Z,82.24
2023-01-20T10:46:18.518Z,82.14
2023-01-20T10:47:18.689Z,82.24
2023-01-20T10:48:18.701Z,82.14
2023-01-20T10:49:18.747Z,82.14
2023-01-20T10:50:18.786Z,82.14
2023-01-20T10:51:18.768Z,82.14
2023-01-20T10:52:18.494Z,82.14
2023-01-20T10:53:19.151Z,82.24
2023-01-20T10:54:18.532Z,82.14
2023-01-20T10:55:19.147Z,82.52
2023-01-20T10:56:18.815Z,82.14
2023-01-20T10:57:18.871Z,82.14
2023-01-20T10:58:18.834Z,82.14
2023-01-20T10:59:18.597Z,82.05
2023-01-20T11:00:19.080Z,82.14
2023-01-20T11:01:19.264Z,82.43
2023-01-20T11:02:19.001Z,82.14
2023-01-20T11:03:19.108Z,82.43
2023-01-20T11:04:18.656Z,82.14
2023-01-20T11:05:18.927Z,82.14
2023-01-20T11:06:18.945Z,82.52
2023-01-20T11:07:18.960Z,82.14
2023-01-20T11:08:18.971Z,82.14
2023-01-20T11:09:18.973Z,82.05
2023-01-20T11:10:19.517Z,82.14
2023-01-20T11:11:19.013Z,82.05
2023-01-20T11:12:18.761Z,82.14
2023-01-20T11:13:19.049Z,82.14
2023-01-20T11:14:19.037Z,82.52
2023-01-20T11:15:18.788Z,82.14
2023-01-20T11:16:18.858Z,82.24
2023-01-20T11:17:19.146Z,82.43
2023-01-20T11:18:18.869Z,82.24
2023-01-20T11:19:19.110Z,82.52
2023-01-20T11:20:19.457Z,82.43
2023-01-20T11:21:18.872Z,82.52
2023-01-20T11:22:19.147Z,82.24
2023-01-20T11:23:19.151Z,82.43
2023-01-20T11:24:18.907Z,82.24
2023-01-20T11:25:19.186Z,82.43
2023-01-20T11:26:19.196Z,82.14
2023-01-20T11:27:19.214Z,82.43
2023-01-20T11:28:18.964Z,82.14
2023-01-20T11:29:19.270Z,82.14
2023-01-20T11:30:19.887Z,82.14
2023-01-20T11:31:19.292Z,82.43
2023-01-20T11:32:19.018Z,82.9
2023-01-20T11:33:19.528Z,82.24
2023-01-20T11:34:19.030Z,82.43
2023-01-20T11:35:19.559Z,82.33
2023-01-20T11:36:19.325Z,82.24
2023-01-20T11:37:19.335Z,82.9
2023-01-20T11:38:19.351Z,82.24
2023-01-20T11:39:19.366Z,82.05
2023-01-20T11:40:19.836Z,82.62
2023-01-20T11:41:19.394Z,82.24
2023-01-20T11:42:19.425Z,83.09
2023-01-20T11:43:19.158Z,82.43
2023-01-20T11:44:19.432Z,82.24
2023-01-20T11:45:23.894Z,82.81
2023-01-20T11:46:19.555Z,82.14
2023-01-20T11:47:19.504Z,82.9
2023-01-20T11:48:19.486Z,82.14
2023-01-20T11:49:19.541Z,82.24
2023-01-20T11:50:20.060Z,82.33
2023-01-20T11:51:19.519Z,82.33
2023-01-20T11:52:19.525Z,83
2023-01-20T11:53:19.747Z,82.24
2023-01-20T11:54:19.569Z,82.33
2023-01-20T11:55:19.584Z,82.24
2023-01-20T11:56:19.584Z,82.71
2023-01-20T11:57:19.614Z,82.62
2023-01-20T11:58:19.608Z,82.33
2023-01-20T11:59:19.634Z,82.52
2023-01-20T12:00:19.836Z,82.52
2023-01-20T12:01:19.691Z,82.43
2023-01-20T12:02:19.839Z,82.33
2023-01-20T12:03:19.689Z,82.14
2023-01-20T12:04:19.851Z,82.24
2023-01-20T12:05:19.733Z,83
2023-01-20T12:06:19.469Z,82.33
2023-01-20T12:07:19.731Z,82.24
2023-01-20T12:08:19.737Z,82.14
2023-01-20T12:09:19.769Z,82.9
2023-01-20T12:10:20.287Z,82.14
2023-01-20T12:11:19.783Z,82.71
2023-01-20T12:12:19.811Z,82.62
2023-01-20T12:13:19.814Z,82.24
2023-01-20T12:14:19.814Z,82.14
2023-01-20T12:15:19.573Z,83.09
2023-01-20T12:16:19.921Z,82.14
2023-01-20T12:17:19.619Z,83.09
2023-01-20T12:18:19.869Z,82.9
2023-01-20T12:19:19.891Z,82.9
2023-01-20T12:20:20.496Z,82.14
2023-01-20T12:21:19.986Z,82.33
2023-01-20T12:22:19.922Z,82.43
2023-01-20T12:23:19.674Z,82.62
2023-01-20T12:24:19.955Z,82.24
2023-01-20T12:25:19.973Z,82.14
2023-01-20T12:26:19.978Z,82.24
2023-01-20T12:27:19.983Z,82.24
2023-01-20T12:28:20.015Z,82.14
2023-01-20T12:29:19.757Z,83
2023-01-20T12:30:23.538Z,82.24
2023-01-20T12:31:20.188Z,82.24
2023-01-20T12:32:20.061Z,82.43
2023-01-20T12:33:20.075Z,82.33
2023-01-20T12:34:20.172Z,82.14
2023-01-20T12:35:20.111Z,83.09
2023-01-20T12:36:20.118Z,82.62
2023-01-20T12:37:20.152Z,82.14
2023-01-20T12:38:20.163Z,83.09
2023-01-20T12:39:20.179Z,82.71
2023-01-20T12:40:20.495Z,82.05
2023-01-20T12:41:19.906Z,82.9
2023-01-20T12:42:20.180Z,83.09
2023-01-20T12:43:20.209Z,82.33
2023-01-20T12:44:20.225Z,82.9
2023-01-20T12:45:20.218Z,82.81
2023-01-20T12:46:20.304Z,82.24
2023-01-20T12:47:19.985Z,82.14
2023-01-20T12:48:20.283Z,82.81
2023-01-20T12:49:20.306Z,82.9
2023-01-20T12:50:20.940Z,82.81
2023-01-20T12:51:20.345Z,82.43
2023-01-20T12:52:20.132Z,83
2023-01-20T12:53:20.544Z,82.62
2023-01-20T12:54:20.353Z,83
2023-01-20T12:55:20.361Z,82.9